sensor_id;sensor_type;location;lat;lon;timestamp;P1;P2;P0
65012;PMS5003;51715;39.432;-77.518;2024-01-30T00:02:22;11;11;
65012;PMS5003;51715;39.432;-77.518;2024-01-30T00:04:51;10;9;
65012;PMS5003;51715;39.432;-77.518;2024-01-30T00:07:19;12;12;
65012;PMS5003;51715;39.432;-77.518;2024-01-30T00:09:48;7;5;
65012;PMS5003;51715;39.432;-77.518;2024-01-30T00:12:17;25;22;
65012;PMS5003;51715;39.432;-77.518;2024-01-30T00:14:45;32;23;
65012;PMS5003;51715;39.432;-77.518;2024-01-30T00:17:14;25;19;
65012;PMS5003;51715;39.432;-77.518;2024-01-30T00:19:44;17;17;
65012;PMS5003;51715;39.432;-77.518;2024-01-30T00:22:12;11;10;
65012;PMS5003;51715;39.432;-77.518;2024-01-30T00:24:42;4;4;
65012;PMS5003;51715;39.432;-77.518;2024-01-30T00:27:10;6;6;
65012;PMS5003;51715;39.432;-77.518;2024-01-30T00:29:38;5;3;
65012;PMS5003;51715;39.432;-77.518;2024-01-30T00:32:07;6;4;
65012;PMS5003;51715;39.432;-77.518;2024-01-30T00:34:35;6;6;
65012;PMS5003;51715;39.432;-77.518;2024-01-30T00:37:05;2;2;
65012;PMS5003;51715;39.432;-77.518;2024-01-30T00:39:34;7;6;
65012;PMS5003;51715;39.432;-77.518;2024-01-30T00:42:05;5;5;
65012;PMS5003;51715;39.432;-77.518;2024-01-30T00:44:35;5;5;
65012;PMS5003;51715;39.432;-77.518;2024-01-30T00:47:03;9;7;
65012;PMS5003;51715;39.432;-77.518;2024-01-30T00:49:32;91;69;
65012;PMS5003;51715;39.432;-77.518;2024-01-30T00:52:01;91;75;
65012;PMS5003;51715;39.432;-77.518;2024-01-30T00:54:29;71;56;
65012;PMS5003;51715;39.432;-77.518;2024-01-30T00:56:57;149;120;
65012;PMS5003;51715;39.432;-77.518;2024-01-30T00:59:25;74;62;
65012;PMS5003;51715;39.432;-77.518;2024-01-30T01:01:54;151;130;
65012;PMS5003;51715;39.432;-77.518;2024-01-30T01:04:25;89;82;
65012;PMS5003;51715;39.432;-77.518;2024-01-30T01:07:00;33;31;
65012;PMS5003;51715;39.432;-77.518;2024-01-30T01:09:29;29;26;
65012;PMS5003;51715;39.432;-77.518;2024-01-30T01:12:01;15;13;
65012;PMS5003;51715;39.432;-77.518;2024-01-30T01:14:33;24;24;
65012;PMS5003;51715;39.432;-77.518;2024-01-30T01:17:02;48;45;
65012;PMS5003;51715;39.432;-77.518;2024-01-30T01:19:31;28;26;
65012;PMS5003;51715;39.432;-77.518;2024-01-30T01:22:01;18;17;
65012;PMS5003;51715;39.432;-77.518;2024-01-30T01:24:30;7;7;
65012;PMS5003;51715;39.432;-77.518;2024-01-30T01:26:59;7;7;
65012;PMS5003;51715;39.432;-77.518;2024-01-30T01:29:27;10;10;
65012;PMS5003;51715;39.432;-77.518;2024-01-30T01:31:58;11;11;
65012;PMS5003;51715;39.432;-77.518;2024-01-30T01:34:26;6;6;
65012;PMS5003;51715;39.432;-77.518;2024-01-30T01:36:55;12;12;
65012;PMS5003;51715;39.432;-77.518;2024-01-30T01:39:26;6;6;
65012;PMS5003;51715;39.432;-77.518;2024-01-30T01:41:57;9;9;
65012;PMS5003;51715;39.432;-77.518;2024-01-30T01:44:28;14;14;
65012;PMS5003;51715;39.432;-77.518;2024-01-30T01:46:57;27;25;
65012;PMS5003;51715;39.432;-77.518;2024-01-30T01:49:25;41;39;
65012;PMS5003;51715;39.432;-77.518;2024-01-30T01:51:58;47;43;
65012;PMS5003;51715;39.432;-77.518;2024-01-30T01:54:28;27;25;
65012;PMS5003;51715;39.432;-77.518;2024-01-30T01:56:59;29;29;
65012;PMS5003;51715;39.432;-77.518;2024-01-30T01:59:29;17;14;
65012;PMS5003;51715;39.432;-77.518;2024-01-30T02:01:58;14;14;
65012;PMS5003;51715;39.432;-77.518;2024-01-30T02:04:27;7;7;
65012;PMS5003;51715;39.432;-77.518;2024-01-30T02:06:56;8;5;
65012;PMS5003;51715;39.432;-77.518;2024-01-30T02:09:25;4;4;
65012;PMS5003;51715;39.432;-77.518;2024-01-30T02:11:55;6;6;
65012;PMS5003;51715;39.432;-77.518;2024-01-30T02:14:24;7;6;
65012;PMS5003;51715;39.432;-77.518;2024-01-30T02:16:53;10;10;
65012;PMS5003;51715;39.432;-77.518;2024-01-30T02:19:21;4;4;
65012;PMS5003;51715;39.432;-77.518;2024-01-30T02:21:49;6;5;
65012;PMS5003;51715;39.432;-77.518;2024-01-30T02:24:18;5;5;
65012;PMS5003;51715;39.432;-77.518;2024-01-30T02:26:47;8;8;
65012;PMS5003;51715;39.432;-77.518;2024-01-30T02:29:17;4;4;
65012;PMS5003;51715;39.432;-77.518;2024-01-30T02:31:47;4;4;
65012;PMS5003;51715;39.432;-77.518;2024-01-30T02:34:15;2;2;
65012;PMS5003;51715;39.432;-77.518;2024-01-30T02:36:44;4;4;
65012;PMS5003;51715;39.432;-77.518;2024-01-30T02:39:14;7;6;
65012;PMS5003;51715;39.432;-77.518;2024-01-30T02:41:43;5;5;
65012;PMS5003;51715;39.432;-77.518;2024-01-30T02:44:12;8;8;
65012;PMS5003;51715;39.432;-77.518;2024-01-30T02:46:40;5;5;
65012;PMS5003;51715;39.432;-77.518;2024-01-30T02:49:08;7;7;
65012;PMS5003;51715;39.432;-77.518;2024-01-30T02:51:37;5;5;
65012;PMS5003;51715;39.432;-77.518;2024-01-30T02:54:06;7;7;
65012;PMS5003;51715;39.432;-77.518;2024-01-30T02:56:39;7;6;
65012;PMS5003;51715;39.432;-77.518;2024-01-30T02:59:07;6;6;
65012;PMS5003;51715;39.432;-77.518;2024-01-30T03:01:42;4;4;
65012;PMS5003;51715;39.432;-77.518;2024-01-30T03:04:10;5;5;
65012;PMS5003;51715;39.432;-77.518;2024-01-30T03:06:44;9;8;
65012;PMS5003;51715;39.432;-77.518;2024-01-30T03:09:16;5;5;
65012;PMS5003;51715;39.432;-77.518;2024-01-30T03:11:44;9;9;
65012;PMS5003;51715;39.432;-77.518;2024-01-30T03:14:13;7;7;
65012;PMS5003;51715;39.432;-77.518;2024-01-30T03:16:42;9;9;
65012;PMS5003;51715;39.432;-77.518;2024-01-30T03:19:12;7;7;
65012;PMS5003;51715;39.432;-77.518;2024-01-30T03:21:41;9;8;
65012;PMS5003;51715;39.432;-77.518;2024-01-30T03:24:15;9;7;
65012;PMS5003;51715;39.432;-77.518;2024-01-30T03:26:44;8;8;
65012;PMS5003;51715;39.432;-77.518;2024-01-30T03:29:13;8;8;
65012;PMS5003;51715;39.432;-77.518;2024-01-30T03:31:42;6;6;
65012;PMS5003;51715;39.432;-77.518;2024-01-30T03:34:10;5;5;
65012;PMS5003;51715;39.432;-77.518;2024-01-30T03:36:38;7;7;
65012;PMS5003;51715;39.432;-77.518;2024-01-30T03:39:07;6;6;
65012;PMS5003;51715;39.432;-77.518;2024-01-30T03:41:36;6;6;
65012;PMS5003;51715;39.432;-77.518;2024-01-30T03:44:06;5;5;
65012;PMS5003;51715;39.432;-77.518;2024-01-30T03:46:35;6;6;
65012;PMS5003;51715;39.432;-77.518;2024-01-30T03:49:03;8;8;
65012;PMS5003;51715;39.432;-77.518;2024-01-30T03:51:31;7;7;
65012;PMS5003;51715;39.432;-77.518;2024-01-30T03:54:01;6;6;
65012;PMS5003;51715;39.432;-77.518;2024-01-30T03:56:28;6;6;
65012;PMS5003;51715;39.432;-77.518;2024-01-30T03:58:57;5;5;
65012;PMS5003;51715;39.432;-77.518;2024-01-30T04:01:27;9;8;
65012;PMS5003;51715;39.432;-77.518;2024-01-30T04:03:55;5;5;
65012;PMS5003;51715;39.432;-77.518;2024-01-30T04:06:24;5;5;
65012;PMS5003;51715;39.432;-77.518;2024-01-30T04:08:53;6;6;
65012;PMS5003;51715;39.432;-77.518;2024-01-30T04:11:21;6;6;
65012;PMS5003;51715;39.432;-77.518;2024-01-30T04:13:49;4;4;
65012;PMS5003;51715;39.432;-77.518;2024-01-30T04:16:20;6;6;
65012;PMS5003;51715;39.432;-77.518;2024-01-30T04:18:51;5;5;
65012;PMS5003;51715;39.432;-77.518;2024-01-30T04:21:21;6;5;
65012;PMS5003;51715;39.432;-77.518;2024-01-30T04:23:51;8;8;
65012;PMS5003;51715;39.432;-77.518;2024-01-30T04:26:20;7;7;
65012;PMS5003;51715;39.432;-77.518;2024-01-30T04:28:48;6;6;
65012;PMS5003;51715;39.432;-77.518;2024-01-30T04:31:16;6;6;
65012;PMS5003;51715;39.432;-77.518;2024-01-30T04:33:45;5;5;
65012;PMS5003;51715;39.432;-77.518;2024-01-30T04:36:16;6;6;
65012;PMS5003;51715;39.432;-77.518;2024-01-30T04:38:45;9;9;
65012;PMS5003;51715;39.432;-77.518;2024-01-30T04:41:14;11;11;
65012;PMS5003;51715;39.432;-77.518;2024-01-30T04:43:42;11;11;
65012;PMS5003;51715;39.432;-77.518;2024-01-30T04:46:10;9;9;
65012;PMS5003;51715;39.432;-77.518;2024-01-30T04:48:38;9;9;
65012;PMS5003;51715;39.432;-77.518;2024-01-30T04:51:06;9;9;
65012;PMS5003;51715;39.432;-77.518;2024-01-30T04:53:34;11;10;
65012;PMS5003;51715;39.432;-77.518;2024-01-30T04:56:05;7;7;
65012;PMS5003;51715;39.432;-77.518;2024-01-30T04:58:35;7;7;
65012;PMS5003;51715;39.432;-77.518;2024-01-30T05:04:01;7;6;
65012;PMS5003;51715;39.432;-77.518;2024-01-30T05:06:30;9;8;
65012;PMS5003;51715;39.432;-77.518;2024-01-30T05:08:58;6;6;
65012;PMS5003;51715;39.432;-77.518;2024-01-30T05:11:27;7;7;
65012;PMS5003;51715;39.432;-77.518;2024-01-30T05:13:55;6;6;
65012;PMS5003;51715;39.432;-77.518;2024-01-30T05:16:24;6;6;
65012;PMS5003;51715;39.432;-77.518;2024-01-30T05:18:51;5;5;
65012;PMS5003;51715;39.432;-77.518;2024-01-30T05:21:19;3;3;
65012;PMS5003;51715;39.432;-77.518;2024-01-30T05:23:49;5;5;
65012;PMS5003;51715;39.432;-77.518;2024-01-30T05:26:17;5;5;
65012;PMS5003;51715;39.432;-77.518;2024-01-30T05:28:46;5;5;
65012;PMS5003;51715;39.432;-77.518;2024-01-30T05:31:15;4;4;
65012;PMS5003;51715;39.432;-77.518;2024-01-30T05:33:44;5;5;
65012;PMS5003;51715;39.432;-77.518;2024-01-30T05:36:12;5;5;
65012;PMS5003;51715;39.432;-77.518;2024-01-30T05:38:40;6;6;
65012;PMS5003;51715;39.432;-77.518;2024-01-30T05:41:08;4;4;
65012;PMS5003;51715;39.432;-77.518;2024-01-30T05:43:36;6;6;
65012;PMS5003;51715;39.432;-77.518;2024-01-30T05:46:04;5;4;
65012;PMS5003;51715;39.432;-77.518;2024-01-30T05:48:33;4;4;
65012;PMS5003;51715;39.432;-77.518;2024-01-30T05:51:02;6;4;
65012;PMS5003;51715;39.432;-77.518;2024-01-30T05:53:30;4;4;
65012;PMS5003;51715;39.432;-77.518;2024-01-30T05:55:58;4;4;
65012;PMS5003;51715;39.432;-77.518;2024-01-30T05:58:33;7;7;
65012;PMS5003;51715;39.432;-77.518;2024-01-30T06:01:01;6;6;
65012;PMS5003;51715;39.432;-77.518;2024-01-30T06:03:31;4;4;
65012;PMS5003;51715;39.432;-77.518;2024-01-30T06:05:59;6;6;
65012;PMS5003;51715;39.432;-77.518;2024-01-30T06:08:28;5;5;
65012;PMS5003;51715;39.432;-77.518;2024-01-30T06:10:56;6;6;
65012;PMS5003;51715;39.432;-77.518;2024-01-30T06:13:25;4;4;
65012;PMS5003;51715;39.432;-77.518;2024-01-30T06:15:53;6;6;
65012;PMS5003;51715;39.432;-77.518;2024-01-30T06:18:21;8;6;
65012;PMS5003;51715;39.432;-77.518;2024-01-30T06:20:49;18;17;
65012;PMS5003;51715;39.432;-77.518;2024-01-30T06:23:17;15;12;
65012;PMS5003;51715;39.432;-77.518;2024-01-30T06:25:45;12;11;
65012;PMS5003;51715;39.432;-77.518;2024-01-30T06:28:13;9;7;
65012;PMS5003;51715;39.432;-77.518;2024-01-30T06:30:45;17;17;
65012;PMS5003;51715;39.432;-77.518;2024-01-30T06:33:13;11;10;
65012;PMS5003;51715;39.432;-77.518;2024-01-30T06:35:43;9;8;
65012;PMS5003;51715;39.432;-77.518;2024-01-30T06:38:13;10;9;
65012;PMS5003;51715;39.432;-77.518;2024-01-30T06:40:41;11;11;
65012;PMS5003;51715;39.432;-77.518;2024-01-30T06:43:09;8;8;
65012;PMS5003;51715;39.432;-77.518;2024-01-30T06:45:39;7;7;
65012;PMS5003;51715;39.432;-77.518;2024-01-30T06:48:07;4;4;
65012;PMS5003;51715;39.432;-77.518;2024-01-30T06:50:35;6;6;
65012;PMS5003;51715;39.432;-77.518;2024-01-30T06:53:03;6;6;
65012;PMS5003;51715;39.432;-77.518;2024-01-30T06:55:31;6;6;
65012;PMS5003;51715;39.432;-77.518;2024-01-30T06:57:59;8;5;
65012;PMS5003;51715;39.432;-77.518;2024-01-30T07:00:27;5;5;
65012;PMS5003;51715;39.432;-77.518;2024-01-30T07:02:56;4;4;
65012;PMS5003;51715;39.432;-77.518;2024-01-30T07:05:24;5;5;
65012;PMS5003;51715;39.432;-77.518;2024-01-30T07:07:53;8;8;
65012;PMS5003;51715;39.432;-77.518;2024-01-30T07:10:23;7;7;
65012;PMS5003;51715;39.432;-77.518;2024-01-30T07:12:51;7;7;
65012;PMS5003;51715;39.432;-77.518;2024-01-30T07:15:19;6;6;
65012;PMS5003;51715;39.432;-77.518;2024-01-30T07:17:48;6;6;
65012;PMS5003;51715;39.432;-77.518;2024-01-30T07:20:17;7;7;
65012;PMS5003;51715;39.432;-77.518;2024-01-30T07:22:52;4;4;
65012;PMS5003;51715;39.432;-77.518;2024-01-30T07:25:20;6;6;
65012;PMS5003;51715;39.432;-77.518;2024-01-30T07:27:48;8;6;
65012;PMS5003;51715;39.432;-77.518;2024-01-30T07:30:16;6;6;
65012;PMS5003;51715;39.432;-77.518;2024-01-30T07:32:44;8;6;
65012;PMS5003;51715;39.432;-77.518;2024-01-30T07:35:12;4;4;
65012;PMS5003;51715;39.432;-77.518;2024-01-30T07:37:41;6;6;
65012;PMS5003;51715;39.432;-77.518;2024-01-30T07:40:10;6;6;
65012;PMS5003;51715;39.432;-77.518;2024-01-30T07:42:42;6;6;
65012;PMS5003;51715;39.432;-77.518;2024-01-30T07:45:10;5;5;
65012;PMS5003;51715;39.432;-77.518;2024-01-30T07:47:39;4;4;
65012;PMS5003;51715;39.432;-77.518;2024-01-30T07:50:07;5;5;
65012;PMS5003;51715;39.432;-77.518;2024-01-30T07:52:35;8;7;
65012;PMS5003;51715;39.432;-77.518;2024-01-30T07:55:04;7;7;
65012;PMS5003;51715;39.432;-77.518;2024-01-30T07:57:32;11;9;
65012;PMS5003;51715;39.432;-77.518;2024-01-30T08:00:01;8;6;
65012;PMS5003;51715;39.432;-77.518;2024-01-30T08:02:31;8;8;
65012;PMS5003;51715;39.432;-77.518;2024-01-30T08:04:59;8;8;
65012;PMS5003;51715;39.432;-77.518;2024-01-30T08:07:27;5;5;
65012;PMS5003;51715;39.432;-77.518;2024-01-30T08:09:55;7;7;
65012;PMS5003;51715;39.432;-77.518;2024-01-30T08:12:23;7;7;
65012;PMS5003;51715;39.432;-77.518;2024-01-30T08:14:51;9;9;
65012;PMS5003;51715;39.432;-77.518;2024-01-30T08:17:23;7;7;
65012;PMS5003;51715;39.432;-77.518;2024-01-30T08:19:52;6;6;
65012;PMS5003;51715;39.432;-77.518;2024-01-30T08:22:20;5;5;
65012;PMS5003;51715;39.432;-77.518;2024-01-30T08:24:48;5;5;
65012;PMS5003;51715;39.432;-77.518;2024-01-30T08:27:16;8;7;
65012;PMS5003;51715;39.432;-77.518;2024-01-30T08:29:46;6;6;
65012;PMS5003;51715;39.432;-77.518;2024-01-30T08:32:13;8;7;
65012;PMS5003;51715;39.432;-77.518;2024-01-30T08:34:42;5;5;
65012;PMS5003;51715;39.432;-77.518;2024-01-30T08:37:11;6;6;
65012;PMS5003;51715;39.432;-77.518;2024-01-30T08:39:39;11;8;
65012;PMS5003;51715;39.432;-77.518;2024-01-30T08:42:07;7;7;
65012;PMS5003;51715;39.432;-77.518;2024-01-30T08:44:35;6;6;
65012;PMS5003;51715;39.432;-77.518;2024-01-30T08:47:03;7;6;
65012;PMS5003;51715;39.432;-77.518;2024-01-30T08:49:31;7;7;
65012;PMS5003;51715;39.432;-77.518;2024-01-30T08:52:01;8;8;
65012;PMS5003;51715;39.432;-77.518;2024-01-30T08:54:29;8;8;
65012;PMS5003;51715;39.432;-77.518;2024-01-30T08:56:58;8;6;
65012;PMS5003;51715;39.432;-77.518;2024-01-30T08:59:26;8;6;
65012;PMS5003;51715;39.432;-77.518;2024-01-30T09:01:55;6;6;
65012;PMS5003;51715;39.432;-77.518;2024-01-30T09:04:22;6;6;
65012;PMS5003;51715;39.432;-77.518;2024-01-30T09:06:52;7;6;
65012;PMS5003;51715;39.432;-77.518;2024-01-30T09:09:20;6;6;
65012;PMS5003;51715;39.432;-77.518;2024-01-30T09:11:48;8;7;
65012;PMS5003;51715;39.432;-77.518;2024-01-30T09:14:17;6;6;
65012;PMS5003;51715;39.432;-77.518;2024-01-30T09:16:45;4;4;
65012;PMS5003;51715;39.432;-77.518;2024-01-30T09:19:13;8;6;
65012;PMS5003;51715;39.432;-77.518;2024-01-30T09:21:41;5;5;
65012;PMS5003;51715;39.432;-77.518;2024-01-30T09:24:10;10;7;
65012;PMS5003;51715;39.432;-77.518;2024-01-30T09:26:38;8;7;
65012;PMS5003;51715;39.432;-77.518;2024-01-30T09:29:06;7;7;
65012;PMS5003;51715;39.432;-77.518;2024-01-30T09:31:34;7;6;
65012;PMS5003;51715;39.432;-77.518;2024-01-30T09:34:01;5;5;
65012;PMS5003;51715;39.432;-77.518;2024-01-30T09:36:29;7;6;
65012;PMS5003;51715;39.432;-77.518;2024-01-30T09:38:59;7;7;
65012;PMS5003;51715;39.432;-77.518;2024-01-30T09:41:28;7;7;
65012;PMS5003;51715;39.432;-77.518;2024-01-30T09:43:59;11;8;
65012;PMS5003;51715;39.432;-77.518;2024-01-30T09:46:30;6;6;
65012;PMS5003;51715;39.432;-77.518;2024-01-30T09:49:01;9;9;
65012;PMS5003;51715;39.432;-77.518;2024-01-30T09:51:30;9;8;
65012;PMS5003;51715;39.432;-77.518;2024-01-30T09:54:00;5;5;
65012;PMS5003;51715;39.432;-77.518;2024-01-30T09:56:29;7;7;
65012;PMS5003;51715;39.432;-77.518;2024-01-30T09:58:58;11;11;
65012;PMS5003;51715;39.432;-77.518;2024-01-30T10:01:26;8;7;
65012;PMS5003;51715;39.432;-77.518;2024-01-30T10:03:55;11;9;
65012;PMS5003;51715;39.432;-77.518;2024-01-30T10:06:22;8;8;
65012;PMS5003;51715;39.432;-77.518;2024-01-30T10:08:56;10;7;
65012;PMS5003;51715;39.432;-77.518;2024-01-30T10:11:25;11;10;
65012;PMS5003;51715;39.432;-77.518;2024-01-30T10:13:54;12;12;
65012;PMS5003;51715;39.432;-77.518;2024-01-30T10:16:22;10;9;
65012;PMS5003;51715;39.432;-77.518;2024-01-30T10:18:50;17;13;
65012;PMS5003;51715;39.432;-77.518;2024-01-30T10:21:18;14;13;
65012;PMS5003;51715;39.432;-77.518;2024-01-30T10:23:49;14;13;
65012;PMS5003;51715;39.432;-77.518;2024-01-30T10:26:18;12;12;
65012;PMS5003;51715;39.432;-77.518;2024-01-30T10:28:45;12;12;
65012;PMS5003;51715;39.432;-77.518;2024-01-30T10:31:16;12;12;
65012;PMS5003;51715;39.432;-77.518;2024-01-30T10:33:45;13;13;
65012;PMS5003;51715;39.432;-77.518;2024-01-30T10:36:13;11;11;
65012;PMS5003;51715;39.432;-77.518;2024-01-30T10:38:42;13;11;
65012;PMS5003;51715;39.432;-77.518;2024-01-30T10:41:10;9;9;
65012;PMS5003;51715;39.432;-77.518;2024-01-30T10:43:40;9;9;
65012;PMS5003;51715;39.432;-77.518;2024-01-30T10:46:16;17;12;
65012;PMS5003;51715;39.432;-77.518;2024-01-30T10:48:52;10;10;
65012;PMS5003;51715;39.432;-77.518;2024-01-30T10:51:24;12;12;
65012;PMS5003;51715;39.432;-77.518;2024-01-30T10:53:55;10;10;
65012;PMS5003;51715;39.432;-77.518;2024-01-30T10:56:24;9;7;
65012;PMS5003;51715;39.432;-77.518;2024-01-30T10:58:53;11;9;
65012;PMS5003;51715;39.432;-77.518;2024-01-30T11:01:21;9;8;
65012;PMS5003;51715;39.432;-77.518;2024-01-30T11:03:51;11;10;
65012;PMS5003;51715;39.432;-77.518;2024-01-30T11:06:22;12;12;
65012;PMS5003;51715;39.432;-77.518;2024-01-30T11:09:00;11;11;
65012;PMS5003;51715;39.432;-77.518;2024-01-30T11:11:29;12;11;
65012;PMS5003;51715;39.432;-77.518;2024-01-30T11:14:14;13;13;
65012;PMS5003;51715;39.432;-77.518;2024-01-30T11:16:42;10;9;
65012;PMS5003;51715;39.432;-77.518;2024-01-30T11:19:11;12;10;
65012;PMS5003;51715;39.432;-77.518;2024-01-30T11:21:41;12;12;
65012;PMS5003;51715;39.432;-77.518;2024-01-30T11:24:09;9;9;
65012;PMS5003;51715;39.432;-77.518;2024-01-30T11:26:42;10;9;
65012;PMS5003;51715;39.432;-77.518;2024-01-30T11:29:13;19;16;
65012;PMS5003;51715;39.432;-77.518;2024-01-30T11:31:51;12;12;
65012;PMS5003;51715;39.432;-77.518;2024-01-30T11:34:21;9;9;
65012;PMS5003;51715;39.432;-77.518;2024-01-30T11:36:51;15;13;
65012;PMS5003;51715;39.432;-77.518;2024-01-30T11:39:23;11;11;
65012;PMS5003;51715;39.432;-77.518;2024-01-30T11:41:53;13;11;
65012;PMS5003;51715;39.432;-77.518;2024-01-30T11:44:22;12;11;
65012;PMS5003;51715;39.432;-77.518;2024-01-30T11:46:51;13;12;
65012;PMS5003;51715;39.432;-77.518;2024-01-30T11:49:19;10;10;
65012;PMS5003;51715;39.432;-77.518;2024-01-30T11:51:48;13;11;
65012;PMS5003;51715;39.432;-77.518;2024-01-30T11:54:16;11;9;
65012;PMS5003;51715;39.432;-77.518;2024-01-30T11:56:50;13;13;
65012;PMS5003;51715;39.432;-77.518;2024-01-30T11:59:18;14;11;
65012;PMS5003;51715;39.432;-77.518;2024-01-30T12:01:46;13;10;
65012;PMS5003;51715;39.432;-77.518;2024-01-30T12:04:19;16;14;
65012;PMS5003;51715;39.432;-77.518;2024-01-30T12:06:51;13;13;
65012;PMS5003;51715;39.432;-77.518;2024-01-30T12:09:19;12;10;
65012;PMS5003;51715;39.432;-77.518;2024-01-30T12:11:47;11;10;
65012;PMS5003;51715;39.432;-77.518;2024-01-30T12:14:17;10;9;
65012;PMS5003;51715;39.432;-77.518;2024-01-30T12:16:48;12;9;
65012;PMS5003;51715;39.432;-77.518;2024-01-30T12:19:21;9;9;
65012;PMS5003;51715;39.432;-77.518;2024-01-30T12:21:53;11;9;
65012;PMS5003;51715;39.432;-77.518;2024-01-30T12:24:23;11;9;
65012;PMS5003;51715;39.432;-77.518;2024-01-30T12:26:51;8;8;
65012;PMS5003;51715;39.432;-77.518;2024-01-30T12:29:23;11;10;
65012;PMS5003;51715;39.432;-77.518;2024-01-30T12:31:53;8;8;
65012;PMS5003;51715;39.432;-77.518;2024-01-30T12:34:21;8;8;
65012;PMS5003;51715;39.432;-77.518;2024-01-30T12:36:51;10;10;
65012;PMS5003;51715;39.432;-77.518;2024-01-30T12:39:19;7;7;
65012;PMS5003;51715;39.432;-77.518;2024-01-30T12:41:47;9;7;
65012;PMS5003;51715;39.432;-77.518;2024-01-30T12:44:15;12;9;
65012;PMS5003;51715;39.432;-77.518;2024-01-30T12:46:43;9;6;
65012;PMS5003;51715;39.432;-77.518;2024-01-30T12:49:14;5;5;
65012;PMS5003;51715;39.432;-77.518;2024-01-30T12:51:43;8;8;
65012;PMS5003;51715;39.432;-77.518;2024-01-30T12:54:12;9;8;
65012;PMS5003;51715;39.432;-77.518;2024-01-30T12:56:42;9;8;
65012;PMS5003;51715;39.432;-77.518;2024-01-30T12:59:10;9;9;
65012;PMS5003;51715;39.432;-77.518;2024-01-30T13:01:38;8;8;
65012;PMS5003;51715;39.432;-77.518;2024-01-30T13:04:06;9;9;
65012;PMS5003;51715;39.432;-77.518;2024-01-30T13:06:34;10;10;
65012;PMS5003;51715;39.432;-77.518;2024-01-30T13:09:02;10;9;
65012;PMS5003;51715;39.432;-77.518;2024-01-30T13:11:32;9;9;
65012;PMS5003;51715;39.432;-77.518;2024-01-30T13:14:00;12;12;
65012;PMS5003;51715;39.432;-77.518;2024-01-30T13:16:31;8;8;
65012;PMS5003;51715;39.432;-77.518;2024-01-30T13:19:00;5;5;
65012;PMS5003;51715;39.432;-77.518;2024-01-30T13:21:28;10;9;
65012;PMS5003;51715;39.432;-77.518;2024-01-30T13:23:56;9;9;
65012;PMS5003;51715;39.432;-77.518;2024-01-30T13:26:24;10;8;
65012;PMS5003;51715;39.432;-77.518;2024-01-30T13:28:54;8;8;
65012;PMS5003;51715;39.432;-77.518;2024-01-30T13:31:22;10;10;
65012;PMS5003;51715;39.432;-77.518;2024-01-30T13:33:51;9;9;
65012;PMS5003;51715;39.432;-77.518;2024-01-30T13:36:20;10;10;
65012;PMS5003;51715;39.432;-77.518;2024-01-30T13:38:48;12;9;
65012;PMS5003;51715;39.432;-77.518;2024-01-30T13:41:16;9;7;
65012;PMS5003;51715;39.432;-77.518;2024-01-30T13:43:45;8;7;
65012;PMS5003;51715;39.432;-77.518;2024-01-30T13:46:14;10;10;
65012;PMS5003;51715;39.432;-77.518;2024-01-30T13:48:42;12;11;
65012;PMS5003;51715;39.432;-77.518;2024-01-30T13:51:11;12;12;
65012;PMS5003;51715;39.432;-77.518;2024-01-30T13:53:39;13;11;
65012;PMS5003;51715;39.432;-77.518;2024-01-30T13:56:07;11;10;
65012;PMS5003;51715;39.432;-77.518;2024-01-30T13:58:36;7;7;
65012;PMS5003;51715;39.432;-77.518;2024-01-30T14:01:04;6;6;
65012;PMS5003;51715;39.432;-77.518;2024-01-30T14:03:31;6;6;
65012;PMS5003;51715;39.432;-77.518;2024-01-30T14:06:02;6;6;
65012;PMS5003;51715;39.432;-77.518;2024-01-30T14:08:29;5;5;
65012;PMS5003;51715;39.432;-77.518;2024-01-30T14:10:59;5;5;
65012;PMS5003;51715;39.432;-77.518;2024-01-30T14:13:27;6;6;
65012;PMS5003;51715;39.432;-77.518;2024-01-30T14:15:56;5;5;
65012;PMS5003;51715;39.432;-77.518;2024-01-30T14:18:25;7;7;
65012;PMS5003;51715;39.432;-77.518;2024-01-30T14:20:54;5;5;
65012;PMS5003;51715;39.432;-77.518;2024-01-30T14:23:22;6;5;
65012;PMS5003;51715;39.432;-77.518;2024-01-30T14:25:51;6;6;
65012;PMS5003;51715;39.432;-77.518;2024-01-30T14:28:19;4;4;
65012;PMS5003;51715;39.432;-77.518;2024-01-30T14:30:47;8;8;
65012;PMS5003;51715;39.432;-77.518;2024-01-30T14:33:18;5;5;
65012;PMS5003;51715;39.432;-77.518;2024-01-30T14:35:48;7;7;
65012;PMS5003;51715;39.432;-77.518;2024-01-30T14:38:16;5;5;
65012;PMS5003;51715;39.432;-77.518;2024-01-30T14:40:44;4;4;
65012;PMS5003;51715;39.432;-77.518;2024-01-30T14:43:13;6;6;
65012;PMS5003;51715;39.432;-77.518;2024-01-30T14:45:41;4;4;
65012;PMS5003;51715;39.432;-77.518;2024-01-30T14:48:09;6;5;
65012;PMS5003;51715;39.432;-77.518;2024-01-30T14:50:38;8;5;
65012;PMS5003;51715;39.432;-77.518;2024-01-30T14:53:06;6;4;
65012;PMS5003;51715;39.432;-77.518;2024-01-30T14:55:34;10;8;
65012;PMS5003;51715;39.432;-77.518;2024-01-30T14:58:04;6;6;
65012;PMS5003;51715;39.432;-77.518;2024-01-30T15:00:33;4;4;
65012;PMS5003;51715;39.432;-77.518;2024-01-30T15:03:01;6;5;
65012;PMS5003;51715;39.432;-77.518;2024-01-30T15:05:30;5;4;
65012;PMS5003;51715;39.432;-77.518;2024-01-30T15:07:58;7;7;
65012;PMS5003;51715;39.432;-77.518;2024-01-30T15:10:28;6;6;
65012;PMS5003;51715;39.432;-77.518;2024-01-30T15:12:56;5;4;
65012;PMS5003;51715;39.432;-77.518;2024-01-30T15:15:25;5;4;
65012;PMS5003;51715;39.432;-77.518;2024-01-30T15:17:54;6;6;
65012;PMS5003;51715;39.432;-77.518;2024-01-30T15:20:22;7;5;
65012;PMS5003;51715;39.432;-77.518;2024-01-30T15:22:50;4;4;
65012;PMS5003;51715;39.432;-77.518;2024-01-30T15:25:18;8;8;
65012;PMS5003;51715;39.432;-77.518;2024-01-30T15:27:46;8;8;
65012;PMS5003;51715;39.432;-77.518;2024-01-30T15:30:14;10;7;
65012;PMS5003;51715;39.432;-77.518;2024-01-30T15:32:44;5;5;
65012;PMS5003;51715;39.432;-77.518;2024-01-30T15:35:13;6;6;
65012;PMS5003;51715;39.432;-77.518;2024-01-30T15:37:40;9;8;
65012;PMS5003;51715;39.432;-77.518;2024-01-30T15:40:08;6;4;
65012;PMS5003;51715;39.432;-77.518;2024-01-30T15:42:40;7;6;
65012;PMS5003;51715;39.432;-77.518;2024-01-30T15:45:10;5;5;
65012;PMS5003;51715;39.432;-77.518;2024-01-30T15:47:38;4;4;
65012;PMS5003;51715;39.432;-77.518;2024-01-30T15:50:07;8;7;
65012;PMS5003;51715;39.432;-77.518;2024-01-30T15:52:37;7;6;
65012;PMS5003;51715;39.432;-77.518;2024-01-30T15:55:04;5;5;
65012;PMS5003;51715;39.432;-77.518;2024-01-30T15:57:32;5;5;
65012;PMS5003;51715;39.432;-77.518;2024-01-30T16:00:02;6;6;
65012;PMS5003;51715;39.432;-77.518;2024-01-30T16:02:30;6;6;
65012;PMS5003;51715;39.432;-77.518;2024-01-30T16:04:59;7;5;
65012;PMS5003;51715;39.432;-77.518;2024-01-30T16:07:29;5;5;
65012;PMS5003;51715;39.432;-77.518;2024-01-30T16:09:58;5;4;
65012;PMS5003;51715;39.432;-77.518;2024-01-30T16:12:29;10;9;
65012;PMS5003;51715;39.432;-77.518;2024-01-30T16:14:58;5;5;
65012;PMS5003;51715;39.432;-77.518;2024-01-30T16:17:26;7;5;
65012;PMS5003;51715;39.432;-77.518;2024-01-30T16:19:54;8;8;
65012;PMS5003;51715;39.432;-77.518;2024-01-30T16:22:22;9;8;
65012;PMS5003;51715;39.432;-77.518;2024-01-30T16:24:50;10;9;